createdAt,value
2022-10-13T00:02:26.414Z,15.80
2022-10-13T00:05:02.292Z,14.70
2022-10-13T00:07:38.534Z,14.70
2022-10-13T00:10:14.910Z,14.30
2022-10-13T00:12:51.254Z,14.80
2022-10-13T00:15:27.380Z,14.30
2022-10-13T00:18:03.399Z,14.00
2022-10-13T00:20:44.820Z,14.80
2022-10-13T00:23:22.068Z,14.90
2022-10-13T00:25:57.860Z,13.60
2022-10-13T00:28:33.883Z,13.70
2022-10-13T00:31:20.197Z,15.70
2022-10-13T00:33:57.050Z,18.40
2022-10-13T00:36:33.579Z,16.60
2022-10-13T00:39:10.396Z,16.90
2022-10-13T00:41:47.349Z,15.30
2022-10-13T00:45:24.250Z,15.40
2022-10-13T00:48:04.154Z,15.90
2022-10-13T00:50:44.773Z,15.30
2022-10-13T00:53:24.622Z,15.10
2022-10-13T00:56:00.772Z,14.30
2022-10-13T00:58:37.967Z,14.00
2022-10-13T01:01:15.095Z,13.70
2022-10-13T01:03:51.038Z,13.80
2022-10-13T01:06:27.528Z,13.80
2022-10-13T01:09:03.314Z,14.70
2022-10-13T01:12:04.775Z,14.70
2022-10-13T01:14:49.456Z,13.80
2022-10-13T01:17:39.116Z,13.50
2022-10-13T01:21:08.084Z,14.40
2022-10-13T01:24:42.524Z,14.70
2022-10-13T01:28:10.212Z,15.30
2022-10-13T01:30:53.685Z,15.10
2022-10-13T01:33:42.393Z,16.50
2022-10-13T01:36:34.383Z,15.90
2022-10-13T01:39:23.743Z,15.60
2022-10-13T01:42:11.388Z,14.90
2022-10-13T01:44:54.103Z,15.70
2022-10-13T01:47:32.723Z,15.80
2022-10-13T01:50:10.515Z,15.10
2022-10-13T01:52:48.279Z,15.70
2022-10-13T01:55:24.583Z,15.00
2022-10-13T01:58:00.712Z,15.90
2022-10-13T02:01:03.942Z,16.20
2022-10-13T02:03:54.091Z,15.00
2022-10-13T02:06:40.806Z,14.40
2022-10-13T02:09:27.743Z,16.00
2022-10-13T02:12:25.980Z,15.30
2022-10-13T02:15:04.175Z,15.60
2022-10-13T02:17:41.212Z,14.60
2022-10-13T02:20:20.603Z,14.70
2022-10-13T02:23:03.936Z,15.00
2022-10-13T02:25:41.004Z,14.00
2022-10-13T02:28:18.190Z,14.80
2022-10-13T02:30:54.358Z,14.70
2022-10-13T02:33:30.227Z,15.70
2022-10-13T02:36:06.380Z,14.70
2022-10-13T02:38:42.836Z,14.50
2022-10-13T02:41:19.920Z,15.30
2022-10-13T02:43:56.023Z,15.30
2022-10-13T02:46:34.618Z,14.40
2022-10-13T02:49:10.709Z,16.30
2022-10-13T02:51:46.487Z,16.10
2022-10-13T02:54:22.707Z,15.50
2022-10-13T02:56:58.407Z,16.40
2022-10-13T02:59:34.152Z,15.30
2022-10-13T03:02:09.903Z,15.10
2022-10-13T03:04:45.684Z,14.80
2022-10-13T03:07:21.698Z,13.30
2022-10-13T03:09:57.461Z,14.30
2022-10-13T03:12:33.397Z,14.80
2022-10-13T03:15:11.733Z,15.30
2022-10-13T03:17:47.810Z,12.90
2022-10-13T03:20:23.737Z,16.50
2022-10-13T03:22:59.456Z,17.00
2022-10-13T03:25:35.441Z,17.90
2022-10-13T03:28:11.481Z,17.30
2022-10-13T03:30:49.507Z,17.00
2022-10-13T03:33:25.247Z,17.10
2022-10-13T03:36:08.808Z,17.20
2022-10-13T03:38:44.885Z,18.30
2022-10-13T03:41:22.632Z,17.60
2022-10-13T03:44:01.771Z,17.50
2022-10-13T03:46:39.274Z,16.40
2022-10-13T03:49:18.834Z,16.60
2022-10-13T03:51:54.800Z,17.00
2022-10-13T03:54:30.757Z,17.90
2022-10-13T03:57:06.814Z,16.40
2022-10-13T03:59:43.754Z,16.30
2022-10-13T04:02:19.701Z,17.50
2022-10-13T04:04:56.712Z,26.70
2022-10-13T04:07:32.634Z,22.00
2022-10-13T04:10:14.392Z,19.70
2022-10-13T04:12:54.189Z,17.80
2022-10-13T04:15:30.087Z,19.00
2022-10-13T04:18:06.295Z,19.30
2022-10-13T04:20:44.116Z,18.60
2022-10-13T04:23:19.890Z,18.10
2022-10-13T04:25:57.799Z,18.40
2022-10-13T04:28:36.002Z,18.00
2022-10-13T04:31:12.153Z,97.90
2022-10-13T04:33:48.239Z,17.60
2022-10-13T04:36:24.831Z,17.00
2022-10-13T04:39:00.747Z,16.00
2022-10-13T04:41:36.566Z,15.70
2022-10-13T04:44:12.877Z,48.80
2022-10-13T04:46:48.589Z,17.70
2022-10-13T04:49:25.214Z,14.50
2022-10-13T04:52:01.142Z,13.30
2022-10-13T04:54:37.068Z,16.50
2022-10-13T04:57:12.847Z,20.90
2022-10-13T04:59:48.901Z,40.30
2022-10-13T05:02:24.816Z,35.90
2022-10-13T05:05:00.650Z,18.40
2022-10-13T05:07:36.645Z,18.00
2022-10-13T05:10:13.666Z,18.40
2022-10-13T05:12:49.412Z,17.70
2022-10-13T05:15:25.660Z,18.70
2022-10-13T05:18:02.541Z,20.10
2022-10-13T05:20:38.512Z,18.80
2022-10-13T05:23:14.735Z,17.10
2022-10-13T05:25:50.794Z,18.50
2022-10-13T05:28:27.267Z,18.30
2022-10-13T05:31:14.411Z,18.20
2022-10-13T05:33:52.509Z,19.20
2022-10-13T05:36:34.875Z,18.90
2022-10-13T05:39:13.144Z,20.00
2022-10-13T05:41:48.959Z,19.50
2022-10-13T05:44:29.992Z,18.50
2022-10-13T05:47:07.699Z,18.20
2022-10-13T05:49:43.658Z,19.70
2022-10-13T05:52:21.175Z,18.20
2022-10-13T05:55:06.116Z,19.20
2022-10-13T05:57:45.805Z,19.60
2022-10-13T06:00:23.545Z,18.70
2022-10-13T06:03:11.531Z,17.10
2022-10-13T06:05:50.583Z,19.90
2022-10-13T06:08:26.678Z,19.00
2022-10-13T06:11:03.317Z,21.30
2022-10-13T06:13:39.691Z,22.50
2022-10-13T06:16:15.747Z,20.60
2022-10-13T06:18:54.428Z,22.30
2022-10-13T06:21:30.397Z,24.40
2022-10-13T06:24:06.938Z,21.80
2022-10-13T06:26:42.957Z,22.30
2022-10-13T06:29:18.876Z,21.80
2022-10-13T06:31:54.835Z,22.80
2022-10-13T06:34:30.646Z,24.30
2022-10-13T06:37:07.350Z,24.30
2022-10-13T06:39:43.317Z,23.90
2022-10-13T06:42:19.357Z,23.90
2022-10-13T06:44:56.682Z,22.80
2022-10-13T06:47:32.619Z,22.80
2022-10-13T06:50:09.850Z,21.60
2022-10-13T06:52:45.748Z,21.70
2022-10-13T06:55:21.908Z,21.20
2022-10-13T06:57:57.968Z,21.60
2022-10-13T07:00:34.026Z,21.50
2022-10-13T07:03:11.848Z,20.70
2022-10-13T07:05:47.790Z,18.40
2022-10-13T07:08:23.677Z,17.90
2022-10-13T07:10:59.490Z,17.40
2022-10-13T07:13:37.149Z,17.00
2022-10-13T07:16:15.952Z,16.90
2022-10-13T07:18:52.754Z,17.60
2022-10-13T07:21:28.977Z,16.80
2022-10-13T07:24:06.123Z,16.80
2022-10-13T07:26:41.944Z,16.80
2022-10-13T07:29:17.896Z,16.90
2022-10-13T07:31:53.951Z,16.70
2022-10-13T07:34:29.787Z,16.20
2022-10-13T07:37:05.780Z,16.00
2022-10-13T07:39:41.693Z,16.50
2022-10-13T07:42:18.066Z,16.50
2022-10-13T07:44:54.050Z,16.20
2022-10-13T07:47:30.924Z,16.20
2022-10-13T07:50:07.661Z,15.00
2022-10-13T07:52:43.640Z,15.90
2022-10-13T07:55:20.961Z,15.30
2022-10-13T07:58:02.450Z,15.70
2022-10-13T08:00:43.181Z,15.80
2022-10-13T08:03:19.431Z,16.30
2022-10-13T08:05:55.556Z,14.50
2022-10-13T08:08:32.124Z,14.20
2022-10-13T08:11:14.743Z,14.20
2022-10-13T08:14:00.885Z,14.30
2022-10-13T08:16:40.083Z,14.40
2022-10-13T08:19:16.393Z,12.80
2022-10-13T08:22:00.341Z,14.20
2022-10-13T08:24:36.807Z,13.40
2022-10-13T08:27:19.332Z,13.50
2022-10-13T08:29:55.848Z,12.90
2022-10-13T08:32:31.783Z,15.00
2022-10-13T08:35:08.762Z,13.80
2022-10-13T08:37:44.945Z,14.60
2022-10-13T08:40:25.230Z,13.90
2022-10-13T08:43:01.904Z,13.10
2022-10-13T08:45:41.661Z,12.50
2022-10-13T08:48:27.732Z,12.90
2022-10-13T08:51:09.209Z,12.40
2022-10-13T08:53:47.577Z,11.90
2022-10-13T08:56:31.727Z,11.60
2022-10-13T08:59:14.390Z,12.20
2022-10-13T09:01:53.885Z,11.50
2022-10-13T09:04:39.297Z,11.90
2022-10-13T09:07:23.254Z,11.50
2022-10-13T09:09:59.674Z,10.90
2022-10-13T09:12:36.807Z,11.40
2022-10-13T09:15:15.790Z,21.90
2022-10-13T09:18:14.399Z,12.40
2022-10-13T09:20:50.151Z,11.10
2022-10-13T09:23:27.621Z,11.20
2022-10-13T09:26:20.162Z,11.70
2022-10-13T09:28:57.324Z,11.20
2022-10-13T09:31:35.463Z,9.90
2022-10-13T09:34:26.603Z,10.10
2022-10-13T09:37:20.484Z,10.50
2022-10-13T09:40:23.601Z,11.00
2022-10-13T09:43:01.193Z,9.20
2022-10-13T09:45:37.130Z,8.80
2022-10-13T09:48:24.951Z,9.50
2022-10-13T09:51:02.824Z,9.20
2022-10-13T09:53:49.454Z,9.30
2022-10-13T09:56:35.993Z,9.10
2022-10-13T09:59:28.756Z,9.40
2022-10-13T10:02:22.480Z,9.20
2022-10-13T10:05:07.789Z,8.60
2022-10-13T10:07:44.256Z,8.80
2022-10-13T10:10:33.902Z,8.00
2022-10-13T10:13:15.614Z,8.60
2022-10-13T10:16:02.518Z,8.40
2022-10-13T10:18:48.640Z,9.50
2022-10-13T10:21:37.983Z,9.60
2022-10-13T10:24:31.946Z,9.10
2022-10-13T10:30:08.193Z,8.70
2022-10-13T10:32:54.517Z,9.40
2022-10-13T10:35:48.282Z,8.90
2022-10-13T10:38:42.533Z,9.70
2022-10-13T10:41:44.729Z,9.50
2022-10-13T10:44:26.204Z,8.30
2022-10-13T10:47:23.444Z,9.10
2022-10-13T10:50:06.557Z,9.60
2022-10-13T10:52:58.247Z,9.50
2022-10-13T10:55:47.106Z,8.80
2022-10-13T10:58:39.639Z,9.30
2022-10-13T11:01:34.580Z,7.30
2022-10-13T11:04:41.860Z,8.70
2022-10-13T11:08:01.496Z,9.50
2022-10-13T11:10:37.650Z,8.70
2022-10-13T11:13:22.464Z,8.10
2022-10-13T11:15:59.109Z,8.10
2022-10-13T11:19:27.392Z,9.20
2022-10-13T11:22:31.061Z,9.50
2022-10-13T11:25:42.509Z,8.00
2022-10-13T11:28:51.828Z,8.70
2022-10-13T11:31:48.342Z,8.40
2022-10-13T11:34:35.497Z,8.30
2022-10-13T11:37:20.568Z,8.20
2022-10-13T11:40:26.132Z,7.90
2022-10-13T11:43:33.695Z,7.00
2022-10-13T11:46:47.701Z,7.70
2022-10-13T11:50:03.157Z,7.60
2022-10-13T11:53:16.437Z,8.50
2022-10-13T11:55:58.515Z,7.70
2022-10-13T11:58:43.143Z,8.90
2022-10-13T12:01:20.789Z,7.50
2022-10-13T12:03:57.486Z,8.50
2022-10-13T12:06:37.187Z,8.10
2022-10-13T12:09:23.202Z,7.00
2022-10-13T12:12:19.598Z,7.60
2022-10-13T12:15:02.590Z,7.50
2022-10-13T12:17:45.333Z,8.00
2022-10-13T12:20:30.450Z,7.30
2022-10-13T12:23:16.585Z,8.30
2022-10-13T12:25:58.622Z,9.90
2022-10-13T12:28:51.942Z,7.30
2022-10-13T12:31:31.581Z,7.90
2022-10-13T12:34:20.955Z,7.20
2022-10-13T12:37:04.265Z,7.80
2022-10-13T12:39:41.257Z,7.90
2022-10-13T12:42:18.845Z,7.30
2022-10-13T12:44:55.494Z,7.60
2022-10-13T12:47:52.575Z,7.10
2022-10-13T12:50:40.481Z,7.70
2022-10-13T12:53:25.342Z,7.20
2022-10-13T12:56:05.545Z,7.30
2022-10-13T13:01:37.171Z,6.80
2022-10-13T13:07:35.417Z,7.10
2022-10-13T13:10:22.222Z,6.70
2022-10-13T13:13:13.624Z,6.10
2022-10-13T13:15:49.762Z,5.80
2022-10-13T13:18:45.335Z,6.70
2022-10-13T13:21:23.206Z,6.50
2022-10-13T13:23:59.486Z,6.40
2022-10-13T13:26:37.768Z,5.90
2022-10-13T13:29:14.687Z,6.20
2022-10-13T13:31:50.407Z,6.00
2022-10-13T13:34:26.502Z,6.40
2022-10-13T13:37:03.816Z,5.50
2022-10-13T13:39:39.535Z,6.40
2022-10-13T13:42:19.538Z,6.40
2022-10-13T13:44:56.834Z,7.10
2022-10-13T13:47:33.141Z,6.60
2022-10-13T13:50:18.535Z,7.10
2022-10-13T13:52:59.660Z,7.20
2022-10-13T13:55:36.428Z,6.60
2022-10-13T13:58:14.803Z,6.70
2022-10-13T14:00:50.858Z,6.30
2022-10-13T14:03:26.785Z,7.20
2022-10-13T14:06:02.470Z,7.10
2022-10-13T14:08:42.658Z,6.30
2022-10-13T14:11:19.261Z,6.20
2022-10-13T14:13:58.052Z,5.90
2022-10-13T14:16:36.364Z,5.80
2022-10-13T14:19:15.295Z,6.10
2022-10-13T14:21:51.376Z,5.80
2022-10-13T14:24:27.611Z,6.20
2022-10-13T14:27:03.333Z,6.20
2022-10-13T14:29:42.075Z,6.10
2022-10-13T14:32:18.639Z,6.00
2022-10-13T14:34:54.564Z,5.80
2022-10-13T14:37:33.176Z,5.80
2022-10-13T14:40:11.554Z,6.30
2022-10-13T14:42:47.271Z,6.10
2022-10-13T14:45:24.145Z,5.40
2022-10-13T14:48:00.099Z,6.00
2022-10-13T14:50:38.483Z,6.10
2022-10-13T14:53:15.438Z,5.90
2022-10-13T14:55:51.571Z,5.80
2022-10-13T14:58:27.466Z,6.30
2022-10-13T15:01:04.491Z,6.80
2022-10-13T15:03:40.258Z,6.10
2022-10-13T15:06:21.079Z,6.40
2022-10-13T15:08:57.672Z,7.20
2022-10-13T15:11:33.503Z,6.90
2022-10-13T15:14:10.756Z,7.70
2022-10-13T15:16:46.800Z,7.40
2022-10-13T15:19:23.105Z,7.10
2022-10-13T15:21:58.977Z,7.90
2022-10-13T15:24:34.809Z,8.20
2022-10-13T15:27:10.960Z,7.60
2022-10-13T15:29:46.820Z,8.00
2022-10-13T15:32:23.576Z,7.60
2022-10-13T15:35:03.502Z,8.30
2022-10-13T15:37:43.297Z,8.20
2022-10-13T15:40:19.963Z,7.80
2022-10-13T15:42:57.044Z,8.30
2022-10-13T15:45:32.932Z,8.80
2022-10-13T15:48:10.732Z,8.40
2022-10-13T15:50:46.359Z,8.60
2022-10-13T15:53:23.669Z,8.90
2022-10-13T15:56:02.299Z,8.40
2022-10-13T15:58:38.833Z,8.80
2022-10-13T16:01:16.325Z,9.10
2022-10-13T16:03:56.154Z,8.90
2022-10-13T16:06:35.816Z,10.00
2022-10-13T16:09:11.744Z,9.50
2022-10-13T16:11:47.627Z,9.80
2022-10-13T16:14:23.426Z,11.40
2022-10-13T16:16:59.486Z,10.50
2022-10-13T16:19:35.483Z,10.20
2022-10-13T16:22:11.335Z,10.00
2022-10-13T16:24:47.488Z,10.30
2022-10-13T16:27:24.131Z,10.80
2022-10-13T16:29:59.929Z,11.00
2022-10-13T16:32:42.493Z,10.40
2022-10-13T16:35:19.566Z,19.10
2022-10-13T16:53:36.358Z,11.30
2022-10-13T16:56:14.485Z,12.00
2022-10-13T16:58:54.281Z,12.30
2022-10-13T17:01:31.619Z,12.80
2022-10-13T17:04:08.231Z,12.50
2022-10-13T17:06:44.375Z,13.50
2022-10-13T17:09:20.689Z,12.90
2022-10-13T17:11:56.444Z,13.50
2022-10-13T17:14:32.366Z,14.40
2022-10-13T17:17:08.122Z,13.70
2022-10-13T17:19:44.237Z,14.50
2022-10-13T17:22:20.404Z,14.80
2022-10-13T17:24:56.391Z,14.90
2022-10-13T17:27:35.856Z,14.80
2022-10-13T17:30:14.873Z,15.80
2022-10-13T17:32:50.845Z,16.30
2022-10-13T17:35:26.655Z,16.20
2022-10-13T17:38:05.671Z,16.50
2022-10-13T17:40:41.953Z,16.70
2022-10-13T17:43:17.856Z,17.10
2022-10-13T17:45:54.017Z,17.20
2022-10-13T17:48:32.238Z,17.30
2022-10-13T17:51:11.166Z,17.40
2022-10-13T17:53:48.562Z,17.90
2022-10-13T17:56:28.206Z,24.30
2022-10-13T17:59:05.090Z,34.50
2022-10-13T18:01:46.950Z,23.60
2022-10-13T18:06:59.744Z,19.30
2022-10-13T18:09:38.262Z,18.30
2022-10-13T18:12:15.225Z,18.70
2022-10-13T18:14:53.025Z,18.30
2022-10-13T18:17:28.977Z,17.50
2022-10-13T18:20:05.250Z,19.10
2022-10-13T18:22:42.813Z,18.30
2022-10-13T18:25:18.810Z,18.30
2022-10-13T18:27:55.152Z,18.50
2022-10-13T18:30:31.108Z,20.70
2022-10-13T18:33:08.285Z,21.20
2022-10-13T18:35:44.304Z,20.20
2022-10-13T18:38:21.324Z,19.40
2022-10-13T18:41:02.129Z,20.00
2022-10-13T18:43:38.133Z,19.40
2022-10-13T18:46:13.986Z,20.70
2022-10-13T18:48:50.208Z,24.00
2022-10-13T18:51:29.130Z,24.00
2022-10-13T18:56:45.437Z,20.80
2022-10-13T18:59:21.971Z,21.70
2022-10-13T19:02:00.172Z,20.20
2022-10-13T19:04:39.405Z,20.90
2022-10-13T19:07:15.384Z,20.70
2022-10-13T19:09:51.366Z,21.40
2022-10-13T19:12:27.295Z,22.00
2022-10-13T19:15:03.574Z,21.60
2022-10-13T19:17:39.379Z,21.30
2022-10-13T19:20:18.976Z,20.50
2022-10-13T19:22:55.697Z,19.70
2022-10-13T19:25:32.110Z,20.50
2022-10-13T19:28:09.856Z,20.10
2022-10-13T19:30:46.204Z,24.00
2022-10-13T19:33:23.450Z,27.60
2022-10-13T19:36:01.982Z,23.70
2022-10-13T19:38:41.837Z,21.90
2022-10-13T19:41:18.886Z,22.00
2022-10-13T19:43:56.768Z,21.30
2022-10-13T19:46:34.040Z,20.70
2022-10-13T19:49:13.226Z,20.40
2022-10-13T19:51:55.720Z,21.80
2022-10-13T19:54:35.019Z,20.80
2022-10-13T19:57:12.301Z,19.80
2022-10-13T19:59:48.387Z,19.70
2022-10-13T20:02:25.533Z,20.70
2022-10-13T20:05:01.591Z,21.20
2022-10-13T20:07:37.711Z,21.20
2022-10-13T20:10:15.218Z,22.50
2022-10-13T20:12:51.309Z,20.80
2022-10-13T20:15:27.601Z,21.70
2022-10-13T20:18:07.141Z,21.60
2022-10-13T20:20:45.446Z,22.20
2022-10-13T20:23:21.356Z,20.80
2022-10-13T20:25:57.272Z,20.60
2022-10-13T20:28:42.913Z,20.00
2022-10-13T20:31:22.598Z,20.60
2022-10-13T20:34:01.360Z,21.00
2022-10-13T20:36:40.395Z,21.60
2022-10-13T20:39:16.414Z,21.00
2022-10-13T20:41:52.465Z,20.00
2022-10-13T20:44:29.713Z,21.60
2022-10-13T20:47:05.731Z,20.30
2022-10-13T20:49:41.671Z,21.80
2022-10-13T20:52:17.735Z,21.40
2022-10-13T20:54:55.464Z,22.30
2022-10-13T20:57:31.391Z,21.30
2022-10-13T21:00:09.815Z,21.20
2022-10-13T21:02:48.483Z,19.70
2022-10-13T21:05:24.315Z,20.40
2022-10-13T21:08:00.433Z,20.30
2022-10-13T21:10:41.681Z,19.70
2022-10-13T21:13:18.739Z,18.80
2022-10-13T21:15:55.197Z,19.00
2022-10-13T21:18:34.489Z,19.40
2022-10-13T21:21:13.374Z,19.60
2022-10-13T21:23:51.996Z,19.20
2022-10-13T21:26:30.544Z,20.60
2022-10-13T21:29:07.232Z,19.00
2022-10-13T21:31:43.656Z,21.40
2022-10-13T21:34:19.339Z,23.70
2022-10-13T21:36:55.387Z,19.80
2022-10-13T21:39:31.353Z,19.60
2022-10-13T21:42:07.506Z,20.50
2022-10-13T21:44:43.918Z,20.60
2022-10-13T21:47:20.148Z,57.90
2022-10-13T21:49:57.460Z,25.70
2022-10-13T21:52:35.400Z,23.80
2022-10-13T21:55:14.216Z,23.80
2022-10-13T21:57:52.041Z,22.40
2022-10-13T22:00:29.090Z,22.60
2022-10-13T22:03:05.253Z,24.30
2022-10-13T22:05:41.942Z,22.30
2022-10-13T22:08:17.827Z,23.50
2022-10-13T22:10:57.386Z,22.60
2022-10-13T22:13:33.710Z,23.00
2022-10-13T22:16:14.549Z,22.20
2022-10-13T22:18:52.166Z,23.30
2022-10-13T22:21:33.638Z,24.10
2022-10-13T22:24:15.954Z,24.40
2022-10-13T22:26:52.959Z,23.90
2022-10-13T22:29:29.255Z,23.00
2022-10-13T22:32:05.249Z,24.30
2022-10-13T22:34:41.394Z,24.20
2022-10-13T22:37:17.300Z,25.20
2022-10-13T22:39:53.254Z,23.90
2022-10-13T22:42:29.413Z,25.30
2022-10-13T22:45:05.905Z,25.10
2022-10-13T22:47:41.992Z,25.80
2022-10-13T22:50:19.474Z,25.60
2022-10-13T22:52:55.389Z,25.10
2022-10-13T22:55:31.231Z,26.40
2022-10-13T22:58:07.096Z,27.20
2022-10-13T23:00:43.607Z,25.80
2022-10-13T23:03:19.943Z,26.20
2022-10-13T23:05:58.068Z,25.80
2022-10-13T23:08:34.322Z,28.80
2022-10-13T23:11:11.461Z,28.10
2022-10-13T23:13:47.657Z,29.10
2022-10-13T23:16:28.276Z,29.50
2022-10-13T23:19:04.674Z,29.20
2022-10-13T23:21:40.670Z,30.20
2022-10-13T23:24:17.361Z,29.10
2022-10-13T23:26:53.117Z,28.50
2022-10-13T23:29:29.081Z,27.20
2022-10-13T23:32:09.502Z,28.50
2022-10-13T23:34:46.519Z,27.90
2022-10-13T23:37:22.760Z,28.10
2022-10-13T23:39:58.979Z,27.90
2022-10-13T23:42:35.153Z,28.00
2022-10-13T23:45:13.115Z,27.70
2022-10-13T23:47:49.011Z,26.30
2022-10-13T23:50:24.900Z,25.50
2022-10-13T23:53:01.722Z,26.70
2022-10-13T23:55:41.612Z,28.20
2022-10-13T23:58:18.011Z,27.90
